sensor_id;sensor_type;location;lat;lon;timestamp;P1;durP1;ratioP1;P2;durP2;ratioP2
52015;SDS011;38032;53.326;6.472;2022-11-06T00:01:23;8.15;;;5.15;;
52015;SDS011;38032;53.326;6.472;2022-11-06T00:03:50;13.45;;;6.30;;
52015;SDS011;38032;53.326;6.472;2022-11-06T00:06:17;10.27;;;5.68;;
52015;SDS011;38032;53.326;6.472;2022-11-06T00:09:03;10.38;;;6.30;;
52015;SDS011;38032;53.326;6.472;2022-11-06T00:11:31;9.05;;;5.57;;
52015;SDS011;38032;53.326;6.472;2022-11-06T00:13:58;9.77;;;6.13;;
52015;SDS011;38032;53.326;6.472;2022-11-06T00:16:25;12.20;;;6.18;;
52015;SDS011;38032;53.326;6.472;2022-11-06T00:18:51;11.40;;;6.28;;
52015;SDS011;38032;53.326;6.472;2022-11-06T00:21:19;8.05;;;5.78;;
52015;SDS011;38032;53.326;6.472;2022-11-06T00:23:47;11.70;;;6.75;;
52015;SDS011;38032;53.326;6.472;2022-11-06T00:26:15;12.55;;;6.32;;
52015;SDS011;38032;53.326;6.472;2022-11-06T00:28:43;10.57;;;6.57;;
52015;SDS011;38032;53.326;6.472;2022-11-06T00:31:10;11.60;;;6.10;;
52015;SDS011;38032;53.326;6.472;2022-11-06T00:33:37;9.27;;;6.30;;
52015;SDS011;38032;53.326;6.472;2022-11-06T00:36:04;9.45;;;6.47;;
52015;SDS011;38032;53.326;6.472;2022-11-06T00:38:32;12.25;;;7.30;;
52015;SDS011;38032;53.326;6.472;2022-11-06T00:41:03;10.73;;;6.65;;
52015;SDS011;38032;53.326;6.472;2022-11-06T00:43:30;13.43;;;7.20;;
52015;SDS011;38032;53.326;6.472;2022-11-06T00:46:01;11.45;;;6.93;;
52015;SDS011;38032;53.326;6.472;2022-11-06T00:48:28;9.82;;;6.70;;
52015;SDS011;38032;53.326;6.472;2022-11-06T00:50:54;11.82;;;7.70;;
52015;SDS011;38032;53.326;6.472;2022-11-06T00:53:20;10.38;;;7.53;;
52015;SDS011;38032;53.326;6.472;2022-11-06T00:55:45;12.75;;;6.95;;
52015;SDS011;38032;53.326;6.472;2022-11-06T00:58:11;12.43;;;7.93;;
52015;SDS011;38032;53.326;6.472;2022-11-06T01:00:37;13.88;;;7.50;;
52015;SDS011;38032;53.326;6.472;2022-11-06T01:03:03;11.55;;;7.10;;
52015;SDS011;38032;53.326;6.472;2022-11-06T01:05:28;11.43;;;6.93;;
52015;SDS011;38032;53.326;6.472;2022-11-06T01:07:54;12.15;;;7.57;;
52015;SDS011;38032;53.326;6.472;2022-11-06T01:10:20;13.95;;;7.45;;
52015;SDS011;38032;53.326;6.472;2022-11-06T01:12:46;10.27;;;7.55;;
52015;SDS011;38032;53.326;6.472;2022-11-06T01:15:12;11.18;;;7.70;;
52015;SDS011;38032;53.326;6.472;2022-11-06T01:17:37;13.63;;;7.72;;
52015;SDS011;38032;53.326;6.472;2022-11-06T01:20:03;10.02;;;6.88;;
52015;SDS011;38032;53.326;6.472;2022-11-06T01:22:29;10.30;;;7.35;;
52015;SDS011;38032;53.326;6.472;2022-11-06T01:24:55;12.07;;;7.72;;
52015;SDS011;38032;53.326;6.472;2022-11-06T01:27:21;11.52;;;7.55;;
52015;SDS011;38032;53.326;6.472;2022-11-06T01:29:47;13.35;;;7.50;;
52015;SDS011;38032;53.326;6.472;2022-11-06T01:32:12;10.95;;;7.65;;
52015;SDS011;38032;53.326;6.472;2022-11-06T01:34:38;11.85;;;7.75;;
52015;SDS011;38032;53.326;6.472;2022-11-06T01:37:04;14.38;;;8.45;;
52015;SDS011;38032;53.326;6.472;2022-11-06T01:39:30;11.48;;;7.45;;
52015;SDS011;38032;53.326;6.472;2022-11-06T01:41:56;12.68;;;7.35;;
52015;SDS011;38032;53.326;6.472;2022-11-06T01:46:59;12.63;;;8.05;;
52015;SDS011;38032;53.326;6.472;2022-11-06T01:49:28;14.43;;;7.95;;
52015;SDS011;38032;53.326;6.472;2022-11-06T01:51:59;12.38;;;8.07;;
52015;SDS011;38032;53.326;6.472;2022-11-06T01:54:27;10.55;;;7.28;;
52015;SDS011;38032;53.326;6.472;2022-11-06T01:56:55;12.15;;;8.38;;
52015;SDS011;38032;53.326;6.472;2022-11-06T01:59:25;10.98;;;8.30;;
52015;SDS011;38032;53.326;6.472;2022-11-06T02:01:54;14.25;;;8.48;;
52015;SDS011;38032;53.326;6.472;2022-11-06T02:04:21;11.30;;;8.15;;
52015;SDS011;38032;53.326;6.472;2022-11-06T02:06:50;13.10;;;8.48;;
52015;SDS011;38032;53.326;6.472;2022-11-06T02:09:17;12.32;;;8.82;;
52015;SDS011;38032;53.326;6.472;2022-11-06T02:11:44;16.05;;;8.90;;
52015;SDS011;38032;53.326;6.472;2022-11-06T02:14:27;12.85;;;8.45;;
52015;SDS011;38032;53.326;6.472;2022-11-06T02:17:01;14.27;;;9.02;;
52015;SDS011;38032;53.326;6.472;2022-11-06T02:22:24;12.30;;;8.02;;
52015;SDS011;38032;53.326;6.472;2022-11-06T02:25:15;10.25;;;8.13;;
52015;SDS011;38032;53.326;6.472;2022-11-06T02:28:02;9.73;;;7.53;;
52015;SDS011;38032;53.326;6.472;2022-11-06T02:30:40;13.18;;;8.07;;
52015;SDS011;38032;53.326;6.472;2022-11-06T02:33:11;11.88;;;8.75;;
52015;SDS011;38032;53.326;6.472;2022-11-06T02:35:42;11.15;;;8.25;;
52015;SDS011;38032;53.326;6.472;2022-11-06T02:38:14;10.48;;;7.70;;
52015;SDS011;38032;53.326;6.472;2022-11-06T02:40:45;11.45;;;8.10;;
52015;SDS011;38032;53.326;6.472;2022-11-06T02:43:14;8.85;;;7.28;;
52015;SDS011;38032;53.326;6.472;2022-11-06T02:45:50;10.35;;;8.07;;
52015;SDS011;38032;53.326;6.472;2022-11-06T02:48:20;9.85;;;7.05;;
52015;SDS011;38032;53.326;6.472;2022-11-06T02:50:52;10.90;;;8.63;;
52015;SDS011;38032;53.326;6.472;2022-11-06T02:53:22;11.10;;;7.85;;
52015;SDS011;38032;53.326;6.472;2022-11-06T02:55:51;10.20;;;7.85;;
52015;SDS011;38032;53.326;6.472;2022-11-06T02:58:24;11.05;;;7.85;;
52015;SDS011;38032;53.326;6.472;2022-11-06T03:00:59;12.35;;;8.95;;
52015;SDS011;38032;53.326;6.472;2022-11-06T03:03:30;13.25;;;8.00;;
52015;SDS011;38032;53.326;6.472;2022-11-06T03:08:39;13.35;;;8.27;;
52015;SDS011;38032;53.326;6.472;2022-11-06T03:19:16;12.77;;;8.77;;
52015;SDS011;38032;53.326;6.472;2022-11-06T03:21:52;11.30;;;8.80;;
52015;SDS011;38032;53.326;6.472;2022-11-06T03:27:17;11.88;;;8.60;;
52015;SDS011;38032;53.326;6.472;2022-11-06T03:29:48;11.35;;;8.05;;
52015;SDS011;38032;53.326;6.472;2022-11-06T03:32:35;11.77;;;8.05;;
52015;SDS011;38032;53.326;6.472;2022-11-06T03:35:12;11.43;;;7.70;;
52015;SDS011;38032;53.326;6.472;2022-11-06T03:38:00;11.80;;;8.43;;
52015;SDS011;38032;53.326;6.472;2022-11-06T03:40:35;9.48;;;7.05;;
52015;SDS011;38032;53.326;6.472;2022-11-06T03:43:05;10.77;;;8.18;;
52015;SDS011;38032;53.326;6.472;2022-11-06T03:45:33;12.05;;;8.25;;
52015;SDS011;38032;53.326;6.472;2022-11-06T03:48:03;10.30;;;8.30;;
52015;SDS011;38032;53.326;6.472;2022-11-06T03:53:05;11.60;;;8.40;;
52015;SDS011;38032;53.326;6.472;2022-11-06T03:55:39;12.05;;;8.10;;
52015;SDS011;38032;53.326;6.472;2022-11-06T03:58:12;8.95;;;7.50;;
52015;SDS011;38032;53.326;6.472;2022-11-06T04:00:40;11.80;;;8.77;;
52015;SDS011;38032;53.326;6.472;2022-11-06T04:03:17;10.68;;;8.52;;
52015;SDS011;38032;53.326;6.472;2022-11-06T04:05:56;11.02;;;8.23;;
52015;SDS011;38032;53.326;6.472;2022-11-06T04:11:15;11.75;;;8.43;;
52015;SDS011;38032;53.326;6.472;2022-11-06T04:14:03;12.15;;;8.52;;
52015;SDS011;38032;53.326;6.472;2022-11-06T04:16:32;11.10;;;9.23;;
52015;SDS011;38032;53.326;6.472;2022-11-06T04:19:02;13.00;;;8.77;;
52015;SDS011;38032;53.326;6.472;2022-11-06T04:24:15;11.00;;;8.75;;
52015;SDS011;38032;53.326;6.472;2022-11-06T04:32:30;12.02;;;9.38;;
52015;SDS011;38032;53.326;6.472;2022-11-06T04:37:38;13.13;;;9.32;;
52015;SDS011;38032;53.326;6.472;2022-11-06T04:42:58;12.10;;;8.57;;
52015;SDS011;38032;53.326;6.472;2022-11-06T04:45:30;10.55;;;8.65;;
52015;SDS011;38032;53.326;6.472;2022-11-06T04:48:00;10.38;;;8.52;;
52015;SDS011;38032;53.326;6.472;2022-11-06T04:50:29;13.80;;;9.73;;
52015;SDS011;38032;53.326;6.472;2022-11-06T04:53:00;14.90;;;9.05;;
52015;SDS011;38032;53.326;6.472;2022-11-06T04:55:28;9.95;;;8.13;;
52015;SDS011;38032;53.326;6.472;2022-11-06T04:57:54;10.40;;;7.55;;
52015;SDS011;38032;53.326;6.472;2022-11-06T05:00:20;11.93;;;8.77;;
52015;SDS011;38032;53.326;6.472;2022-11-06T05:02:46;15.95;;;9.57;;
52015;SDS011;38032;53.326;6.472;2022-11-06T05:05:12;13.25;;;9.35;;
52015;SDS011;38032;53.326;6.472;2022-11-06T05:07:37;12.93;;;8.32;;
52015;SDS011;38032;53.326;6.472;2022-11-06T05:10:03;13.85;;;9.48;;
52015;SDS011;38032;53.326;6.472;2022-11-06T05:12:29;13.50;;;9.43;;
52015;SDS011;38032;53.326;6.472;2022-11-06T05:14:55;14.40;;;9.50;;
52015;SDS011;38032;53.326;6.472;2022-11-06T05:17:21;12.73;;;9.18;;
52015;SDS011;38032;53.326;6.472;2022-11-06T05:19:47;12.18;;;9.48;;
52015;SDS011;38032;53.326;6.472;2022-11-06T05:22:13;12.45;;;9.07;;
52015;SDS011;38032;53.326;6.472;2022-11-06T05:24:57;19.40;;;9.63;;
52015;SDS011;38032;53.326;6.472;2022-11-06T05:27:22;13.40;;;8.57;;
52015;SDS011;38032;53.326;6.472;2022-11-06T05:29:48;12.52;;;9.00;;
52015;SDS011;38032;53.326;6.472;2022-11-06T05:32:14;12.55;;;8.20;;
52015;SDS011;38032;53.326;6.472;2022-11-06T05:34:40;11.32;;;8.90;;
52015;SDS011;38032;53.326;6.472;2022-11-06T05:37:06;14.63;;;7.93;;
52015;SDS011;38032;53.326;6.472;2022-11-06T05:39:32;14.75;;;8.93;;
52015;SDS011;38032;53.326;6.472;2022-11-06T05:41:58;11.32;;;8.38;;
52015;SDS011;38032;53.326;6.472;2022-11-06T05:44:23;11.90;;;8.32;;
52015;SDS011;38032;53.326;6.472;2022-11-06T05:46:49;13.75;;;7.93;;
52015;SDS011;38032;53.326;6.472;2022-11-06T05:49:16;13.27;;;8.15;;
52015;SDS011;38032;53.326;6.472;2022-11-06T05:51:42;9.27;;;7.40;;
52015;SDS011;38032;53.326;6.472;2022-11-06T05:54:08;10.27;;;7.57;;
52015;SDS011;38032;53.326;6.472;2022-11-06T05:56:34;9.35;;;7.55;;
52015;SDS011;38032;53.326;6.472;2022-11-06T05:58:59;11.40;;;8.55;;
52015;SDS011;38032;53.326;6.472;2022-11-06T06:01:25;11.35;;;7.55;;
52015;SDS011;38032;53.326;6.472;2022-11-06T06:03:51;10.85;;;7.93;;
52015;SDS011;38032;53.326;6.472;2022-11-06T06:06:17;12.73;;;7.18;;
52015;SDS011;38032;53.326;6.472;2022-11-06T06:08:44;14.90;;;8.02;;
52015;SDS011;38032;53.326;6.472;2022-11-06T06:11:10;12.93;;;7.82;;
52015;SDS011;38032;53.326;6.472;2022-11-06T06:13:36;9.48;;;7.57;;
52015;SDS011;38032;53.326;6.472;2022-11-06T06:16:02;10.95;;;7.68;;
52015;SDS011;38032;53.326;6.472;2022-11-06T06:18:28;13.52;;;7.50;;
52015;SDS011;38032;53.326;6.472;2022-11-06T06:20:55;11.20;;;7.47;;
52015;SDS011;38032;53.326;6.472;2022-11-06T06:23:22;12.07;;;7.03;;
52015;SDS011;38032;53.326;6.472;2022-11-06T06:25:47;9.27;;;7.35;;
52015;SDS011;38032;53.326;6.472;2022-11-06T06:28:13;12.63;;;7.47;;
52015;SDS011;38032;53.326;6.472;2022-11-06T06:30:39;9.75;;;6.97;;
52015;SDS011;38032;53.326;6.472;2022-11-06T06:33:05;8.80;;;6.57;;
52015;SDS011;38032;53.326;6.472;2022-11-06T06:35:31;10.20;;;6.50;;
52015;SDS011;38032;53.326;6.472;2022-11-06T06:37:58;11.05;;;6.95;;
52015;SDS011;38032;53.326;6.472;2022-11-06T06:40:23;10.95;;;7.18;;
52015;SDS011;38032;53.326;6.472;2022-11-06T06:42:53;9.18;;;6.07;;
52015;SDS011;38032;53.326;6.472;2022-11-06T06:45:20;9.95;;;6.13;;
52015;SDS011;38032;53.326;6.472;2022-11-06T06:47:46;10.40;;;6.50;;
52015;SDS011;38032;53.326;6.472;2022-11-06T06:50:11;6.97;;;6.07;;
52015;SDS011;38032;53.326;6.472;2022-11-06T06:52:37;8.18;;;6.20;;
52015;SDS011;38032;53.326;6.472;2022-11-06T06:55:03;10.88;;;6.47;;
52015;SDS011;38032;53.326;6.472;2022-11-06T06:57:30;8.88;;;6.63;;
52015;SDS011;38032;53.326;6.472;2022-11-06T06:59:56;9.63;;;6.90;;
52015;SDS011;38032;53.326;6.472;2022-11-06T07:02:21;9.65;;;6.10;;
52015;SDS011;38032;53.326;6.472;2022-11-06T07:04:47;8.73;;;6.00;;
52015;SDS011;38032;53.326;6.472;2022-11-06T07:07:13;10.75;;;6.60;;
52015;SDS011;38032;53.326;6.472;2022-11-06T07:09:39;10.98;;;6.72;;
52015;SDS011;38032;53.326;6.472;2022-11-06T07:12:05;12.85;;;6.05;;
52015;SDS011;38032;53.326;6.472;2022-11-06T07:14:31;9.25;;;5.97;;
52015;SDS011;38032;53.326;6.472;2022-11-06T07:16:56;11.73;;;7.07;;
52015;SDS011;38032;53.326;6.472;2022-11-06T07:19:22;8.90;;;5.65;;
52015;SDS011;38032;53.326;6.472;2022-11-06T07:21:50;10.93;;;6.40;;
52015;SDS011;38032;53.326;6.472;2022-11-06T07:24:17;15.35;;;6.53;;
52015;SDS011;38032;53.326;6.472;2022-11-06T07:26:43;12.35;;;6.13;;
52015;SDS011;38032;53.326;6.472;2022-11-06T07:29:09;13.35;;;6.40;;
52015;SDS011;38032;53.326;6.472;2022-11-06T07:31:35;13.65;;;6.25;;
52015;SDS011;38032;53.326;6.472;2022-11-06T07:34:01;10.52;;;5.60;;
52015;SDS011;38032;53.326;6.472;2022-11-06T07:36:26;12.48;;;6.38;;
52015;SDS011;38032;53.326;6.472;2022-11-06T07:38:52;10.20;;;5.70;;
52015;SDS011;38032;53.326;6.472;2022-11-06T07:41:18;15.63;;;6.22;;
52015;SDS011;38032;53.326;6.472;2022-11-06T07:43:44;8.45;;;5.93;;
52015;SDS011;38032;53.326;6.472;2022-11-06T07:46:13;11.23;;;6.10;;
52015;SDS011;38032;53.326;6.472;2022-11-06T07:48:39;14.77;;;6.20;;
52015;SDS011;38032;53.326;6.472;2022-11-06T07:51:06;17.60;;;5.78;;
52015;SDS011;38032;53.326;6.472;2022-11-06T07:53:33;11.48;;;5.65;;
52015;SDS011;38032;53.326;6.472;2022-11-06T07:55:59;10.35;;;4.97;;
52015;SDS011;38032;53.326;6.472;2022-11-06T07:58:26;7.47;;;4.97;;
52015;SDS011;38032;53.326;6.472;2022-11-06T08:00:53;13.52;;;5.40;;
52015;SDS011;38032;53.326;6.472;2022-11-06T08:03:20;11.02;;;5.38;;
52015;SDS011;38032;53.326;6.472;2022-11-06T08:05:46;12.75;;;5.53;;
52015;SDS011;38032;53.326;6.472;2022-11-06T08:08:13;10.52;;;4.75;;
52015;SDS011;38032;53.326;6.472;2022-11-06T08:10:39;7.68;;;4.80;;
52015;SDS011;38032;53.326;6.472;2022-11-06T08:13:08;8.25;;;5.10;;
52015;SDS011;38032;53.326;6.472;2022-11-06T08:15:36;12.10;;;5.00;;
52015;SDS011;38032;53.326;6.472;2022-11-06T08:18:03;9.85;;;4.97;;
52015;SDS011;38032;53.326;6.472;2022-11-06T08:20:29;9.45;;;5.00;;
52015;SDS011;38032;53.326;6.472;2022-11-06T08:22:57;9.85;;;5.13;;
52015;SDS011;38032;53.326;6.472;2022-11-06T08:25:24;10.57;;;4.82;;
52015;SDS011;38032;53.326;6.472;2022-11-06T08:27:53;10.13;;;5.18;;
52015;SDS011;38032;53.326;6.472;2022-11-06T08:30:20;9.15;;;5.20;;
52015;SDS011;38032;53.326;6.472;2022-11-06T08:32:46;11.27;;;4.68;;
52015;SDS011;38032;53.326;6.472;2022-11-06T08:35:11;9.30;;;4.60;;
52015;SDS011;38032;53.326;6.472;2022-11-06T08:37:37;8.07;;;4.28;;
52015;SDS011;38032;53.326;6.472;2022-11-06T08:40:03;10.93;;;4.53;;
52015;SDS011;38032;53.326;6.472;2022-11-06T08:42:29;8.82;;;4.53;;
52015;SDS011;38032;53.326;6.472;2022-11-06T08:44:55;6.60;;;4.80;;
52015;SDS011;38032;53.326;6.472;2022-11-06T08:47:21;10.65;;;4.20;;
52015;SDS011;38032;53.326;6.472;2022-11-06T08:49:47;9.23;;;4.57;;
52015;SDS011;38032;53.326;6.472;2022-11-06T08:52:13;6.90;;;3.72;;
52015;SDS011;38032;53.326;6.472;2022-11-06T08:54:38;6.72;;;4.20;;
52015;SDS011;38032;53.326;6.472;2022-11-06T08:57:04;9.65;;;4.72;;
52015;SDS011;38032;53.326;6.472;2022-11-06T08:59:30;9.88;;;4.30;;
52015;SDS011;38032;53.326;6.472;2022-11-06T09:01:57;11.60;;;4.30;;
52015;SDS011;38032;53.326;6.472;2022-11-06T09:04:24;9.10;;;4.43;;
52015;SDS011;38032;53.326;6.472;2022-11-06T09:06:49;7.10;;;4.18;;
52015;SDS011;38032;53.326;6.472;2022-11-06T09:09:15;13.40;;;4.32;;
52015;SDS011;38032;53.326;6.472;2022-11-06T09:11:41;10.30;;;4.40;;
52015;SDS011;38032;53.326;6.472;2022-11-06T09:14:07;8.48;;;4.22;;
52015;SDS011;38032;53.326;6.472;2022-11-06T09:16:33;10.95;;;4.38;;
52015;SDS011;38032;53.326;6.472;2022-11-06T09:18:58;9.40;;;4.18;;
52015;SDS011;38032;53.326;6.472;2022-11-06T09:21:24;10.20;;;4.20;;
52015;SDS011;38032;53.326;6.472;2022-11-06T09:23:50;10.40;;;4.80;;
52015;SDS011;38032;53.326;6.472;2022-11-06T09:26:16;8.20;;;4.38;;
52015;SDS011;38032;53.326;6.472;2022-11-06T09:28:42;9.65;;;4.55;;
52015;SDS011;38032;53.326;6.472;2022-11-06T09:31:08;7.45;;;3.97;;
52015;SDS011;38032;53.326;6.472;2022-11-06T09:33:34;9.18;;;4.50;;
52015;SDS011;38032;53.326;6.472;2022-11-06T09:36:06;10.43;;;4.30;;
52015;SDS011;38032;53.326;6.472;2022-11-06T09:38:32;8.80;;;4.20;;
52015;SDS011;38032;53.326;6.472;2022-11-06T09:40:58;10.63;;;4.28;;
52015;SDS011;38032;53.326;6.472;2022-11-06T09:43:30;11.18;;;3.88;;
52015;SDS011;38032;53.326;6.472;2022-11-06T09:46:07;9.32;;;3.88;;
52015;SDS011;38032;53.326;6.472;2022-11-06T09:48:45;5.57;;;3.58;;
52015;SDS011;38032;53.326;6.472;2022-11-06T09:51:17;6.97;;;3.72;;
52015;SDS011;38032;53.326;6.472;2022-11-06T09:53:51;8.63;;;3.70;;
52015;SDS011;38032;53.326;6.472;2022-11-06T09:56:27;6.75;;;3.75;;
52015;SDS011;38032;53.326;6.472;2022-11-06T09:58:56;9.18;;;4.20;;
52015;SDS011;38032;53.326;6.472;2022-11-06T10:01:27;7.10;;;3.60;;
52015;SDS011;38032;53.326;6.472;2022-11-06T10:04:02;7.72;;;3.67;;
52015;SDS011;38032;53.326;6.472;2022-11-06T10:06:29;6.32;;;3.60;;
52015;SDS011;38032;53.326;6.472;2022-11-06T10:08:56;8.63;;;4.22;;
52015;SDS011;38032;53.326;6.472;2022-11-06T10:11:34;7.20;;;3.40;;
52015;SDS011;38032;53.326;6.472;2022-11-06T10:14:17;7.88;;;3.53;;
52015;SDS011;38032;53.326;6.472;2022-11-06T10:16:52;8.80;;;3.75;;
52015;SDS011;38032;53.326;6.472;2022-11-06T10:19:38;10.15;;;3.70;;
52015;SDS011;38032;53.326;6.472;2022-11-06T10:22:16;8.25;;;3.25;;
52015;SDS011;38032;53.326;6.472;2022-11-06T10:27:36;8.98;;;3.85;;
52015;SDS011;38032;53.326;6.472;2022-11-06T10:30:09;8.40;;;4.15;;
52015;SDS011;38032;53.326;6.472;2022-11-06T10:33:12;7.45;;;3.50;;
52015;SDS011;38032;53.326;6.472;2022-11-06T10:38:05;7.03;;;3.35;;
52015;SDS011;38032;53.326;6.472;2022-11-06T10:40:37;7.63;;;3.58;;
52015;SDS011;38032;53.326;6.472;2022-11-06T10:43:07;7.28;;;3.80;;
52015;SDS011;38032;53.326;6.472;2022-11-06T10:46:00;6.90;;;3.30;;
52015;SDS011;38032;53.326;6.472;2022-11-06T10:48:29;6.72;;;3.35;;
52015;SDS011;38032;53.326;6.472;2022-11-06T10:51:03;7.63;;;3.20;;
52015;SDS011;38032;53.326;6.472;2022-11-06T10:56:44;7.35;;;3.30;;
52015;SDS011;38032;53.326;6.472;2022-11-06T10:59:13;7.43;;;3.30;;
52015;SDS011;38032;53.326;6.472;2022-11-06T11:01:40;5.55;;;2.95;;
52015;SDS011;38032;53.326;6.472;2022-11-06T11:04:06;8.73;;;3.08;;
52015;SDS011;38032;53.326;6.472;2022-11-06T11:06:32;6.60;;;3.30;;
52015;SDS011;38032;53.326;6.472;2022-11-06T11:08:58;7.47;;;3.03;;
52015;SDS011;38032;53.326;6.472;2022-11-06T11:11:26;7.43;;;3.22;;
52015;SDS011;38032;53.326;6.472;2022-11-06T11:16:22;6.90;;;2.80;;
52015;SDS011;38032;53.326;6.472;2022-11-06T11:18:50;6.13;;;2.85;;
52015;SDS011;38032;53.326;6.472;2022-11-06T11:23:43;7.45;;;3.28;;
52015;SDS011;38032;53.326;6.472;2022-11-06T11:26:32;8.40;;;2.92;;
52015;SDS011;38032;53.326;6.472;2022-11-06T11:29:02;5.70;;;2.88;;
52015;SDS011;38032;53.326;6.472;2022-11-06T11:31:38;7.35;;;3.10;;
52015;SDS011;38032;53.326;6.472;2022-11-06T11:34:13;7.13;;;3.47;;
52015;SDS011;38032;53.326;6.472;2022-11-06T11:36:46;5.95;;;3.05;;
52015;SDS011;38032;53.326;6.472;2022-11-06T11:39:14;6.07;;;3.28;;
52015;SDS011;38032;53.326;6.472;2022-11-06T11:41:42;6.10;;;3.08;;
52015;SDS011;38032;53.326;6.472;2022-11-06T11:46:45;11.13;;;3.78;;
52015;SDS011;38032;53.326;6.472;2022-11-06T11:52:00;10.07;;;3.42;;
52015;SDS011;38032;53.326;6.472;2022-11-06T11:54:30;8.27;;;3.45;;
52015;SDS011;38032;53.326;6.472;2022-11-06T11:57:02;6.05;;;3.47;;
52015;SDS011;38032;53.326;6.472;2022-11-06T12:02:17;8.23;;;3.40;;
52015;SDS011;38032;53.326;6.472;2022-11-06T12:04:55;8.55;;;3.25;;
52015;SDS011;38032;53.326;6.472;2022-11-06T12:07:26;8.13;;;3.30;;
52015;SDS011;38032;53.326;6.472;2022-11-06T12:09:54;7.07;;;3.03;;
52015;SDS011;38032;53.326;6.472;2022-11-06T12:15:04;6.05;;;3.30;;
52015;SDS011;38032;53.326;6.472;2022-11-06T12:17:41;9.73;;;3.72;;
52015;SDS011;38032;53.326;6.472;2022-11-06T12:20:13;7.30;;;3.25;;
52015;SDS011;38032;53.326;6.472;2022-11-06T12:22:43;5.90;;;3.47;;
52015;SDS011;38032;53.326;6.472;2022-11-06T12:25:19;5.53;;;3.30;;
52015;SDS011;38032;53.326;6.472;2022-11-06T12:27:51;6.90;;;3.63;;
52015;SDS011;38032;53.326;6.472;2022-11-06T12:30:21;8.32;;;3.10;;
52015;SDS011;38032;53.326;6.472;2022-11-06T12:35:32;6.60;;;2.90;;
52015;SDS011;38032;53.326;6.472;2022-11-06T12:48:55;8.63;;;3.33;;
52015;SDS011;38032;53.326;6.472;2022-11-06T12:56:56;4.82;;;2.90;;
52015;SDS011;38032;53.326;6.472;2022-11-06T12:59:52;7.95;;;3.75;;
52015;SDS011;38032;53.326;6.472;2022-11-06T13:02:39;5.07;;;2.88;;
52015;SDS011;38032;53.326;6.472;2022-11-06T13:05:22;4.97;;;2.65;;
52015;SDS011;38032;53.326;6.472;2022-11-06T13:08:05;6.40;;;2.80;;
52015;SDS011;38032;53.326;6.472;2022-11-06T13:11:02;6.22;;;3.13;;
52015;SDS011;38032;53.326;6.472;2022-11-06T13:13:39;6.60;;;2.95;;
52015;SDS011;38032;53.326;6.472;2022-11-06T13:18:47;9.73;;;3.05;;
52015;SDS011;38032;53.326;6.472;2022-11-06T13:21:36;8.90;;;3.38;;
52015;SDS011;38032;53.326;6.472;2022-11-06T13:29:42;8.73;;;3.28;;
52015;SDS011;38032;53.326;6.472;2022-11-06T13:32:12;7.93;;;2.80;;
52015;SDS011;38032;53.326;6.472;2022-11-06T13:34:41;7.50;;;2.63;;
52015;SDS011;38032;53.326;6.472;2022-11-06T13:37:13;5.45;;;2.63;;
52015;SDS011;38032;53.326;6.472;2022-11-06T13:39:49;5.60;;;2.60;;
52015;SDS011;38032;53.326;6.472;2022-11-06T13:42:22;3.97;;;2.58;;
52015;SDS011;38032;53.326;6.472;2022-11-06T13:44:54;5.30;;;2.50;;
52015;SDS011;38032;53.326;6.472;2022-11-06T13:50:09;7.22;;;2.83;;
52015;SDS011;38032;53.326;6.472;2022-11-06T13:52:44;6.13;;;2.75;;
52015;SDS011;38032;53.326;6.472;2022-11-06T13:55:23;5.88;;;2.70;;
52015;SDS011;38032;53.326;6.472;2022-11-06T13:58:01;6.25;;;2.75;;
52015;SDS011;38032;53.326;6.472;2022-11-06T14:00:56;5.93;;;2.22;;
52015;SDS011;38032;53.326;6.472;2022-11-06T14:06:17;7.72;;;2.97;;
52015;SDS011;38032;53.326;6.472;2022-11-06T14:08:49;6.30;;;2.40;;
52015;SDS011;38032;53.326;6.472;2022-11-06T14:11:19;6.32;;;2.58;;
52015;SDS011;38032;53.326;6.472;2022-11-06T14:13:58;5.07;;;2.50;;
52015;SDS011;38032;53.326;6.472;2022-11-06T14:16:28;6.32;;;2.63;;
52015;SDS011;38032;53.326;6.472;2022-11-06T14:18:56;6.97;;;2.63;;
52015;SDS011;38032;53.326;6.472;2022-11-06T14:26:41;9.00;;;2.47;;
52015;SDS011;38032;53.326;6.472;2022-11-06T14:34:42;6.68;;;2.80;;
52015;SDS011;38032;53.326;6.472;2022-11-06T14:44:49;5.60;;;2.35;;
52015;SDS011;38032;53.326;6.472;2022-11-06T14:47:25;7.55;;;2.55;;
52015;SDS011;38032;53.326;6.472;2022-11-06T14:50:01;5.75;;;2.55;;
52015;SDS011;38032;53.326;6.472;2022-11-06T14:52:37;5.28;;;2.33;;
52015;SDS011;38032;53.326;6.472;2022-11-06T14:55:06;6.40;;;2.90;;
52015;SDS011;38032;53.326;6.472;2022-11-06T15:00:11;9.73;;;2.72;;
52015;SDS011;38032;53.326;6.472;2022-11-06T15:02:57;5.53;;;2.38;;
52015;SDS011;38032;53.326;6.472;2022-11-06T15:05:24;5.03;;;2.50;;
52015;SDS011;38032;53.326;6.472;2022-11-06T15:07:53;6.32;;;2.92;;
52015;SDS011;38032;53.326;6.472;2022-11-06T15:15:42;7.55;;;2.67;;
52015;SDS011;38032;53.326;6.472;2022-11-06T15:18:11;4.80;;;2.42;;
52015;SDS011;38032;53.326;6.472;2022-11-06T15:20:41;7.13;;;2.75;;
52015;SDS011;38032;53.326;6.472;2022-11-06T15:23:10;7.50;;;2.53;;
52015;SDS011;38032;53.326;6.472;2022-11-06T15:25:39;3.92;;;2.60;;
52015;SDS011;38032;53.326;6.472;2022-11-06T15:28:14;8.35;;;2.75;;
52015;SDS011;38032;53.326;6.472;2022-11-06T15:30:46;6.15;;;2.35;;
52015;SDS011;38032;53.326;6.472;2022-11-06T15:33:18;6.28;;;2.50;;
52015;SDS011;38032;53.326;6.472;2022-11-06T15:35:50;5.60;;;3.08;;
52015;SDS011;38032;53.326;6.472;2022-11-06T15:38:19;12.15;;;3.22;;
52015;SDS011;38032;53.326;6.472;2022-11-06T15:40:47;5.40;;;2.50;;
52015;SDS011;38032;53.326;6.472;2022-11-06T15:43:23;8.20;;;2.80;;
52015;SDS011;38032;53.326;6.472;2022-11-06T15:48:29;7.03;;;2.58;;
52015;SDS011;38032;53.326;6.472;2022-11-06T15:50:55;9.82;;;2.53;;
52015;SDS011;38032;53.326;6.472;2022-11-06T15:53:22;6.32;;;2.80;;
52015;SDS011;38032;53.326;6.472;2022-11-06T15:58:31;6.32;;;2.88;;
52015;SDS011;38032;53.326;6.472;2022-11-06T16:00:59;6.05;;;2.97;;
52015;SDS011;38032;53.326;6.472;2022-11-06T16:03:27;6.13;;;3.10;;
52015;SDS011;38032;53.326;6.472;2022-11-06T16:05:55;6.97;;;2.95;;
52015;SDS011;38032;53.326;6.472;2022-11-06T16:08:23;8.98;;;3.70;;
52015;SDS011;38032;53.326;6.472;2022-11-06T16:10:51;6.60;;;3.28;;
52015;SDS011;38032;53.326;6.472;2022-11-06T16:13:19;9.75;;;3.70;;
52015;SDS011;38032;53.326;6.472;2022-11-06T16:15:47;8.93;;;3.47;;
52015;SDS011;38032;53.326;6.472;2022-11-06T16:18:17;8.05;;;3.55;;
52015;SDS011;38032;53.326;6.472;2022-11-06T16:23:38;8.40;;;3.78;;
52015;SDS011;38032;53.326;6.472;2022-11-06T16:26:08;8.80;;;4.07;;
52015;SDS011;38032;53.326;6.472;2022-11-06T16:28:35;8.90;;;3.97;;
52015;SDS011;38032;53.326;6.472;2022-11-06T16:31:09;8.07;;;3.78;;
52015;SDS011;38032;53.326;6.472;2022-11-06T16:33:51;7.53;;;3.70;;
52015;SDS011;38032;53.326;6.472;2022-11-06T16:36:19;8.98;;;3.75;;
52015;SDS011;38032;53.326;6.472;2022-11-06T16:38:45;16.67;;;4.28;;
52015;SDS011;38032;53.326;6.472;2022-11-06T16:41:12;10.30;;;4.78;;
52015;SDS011;38032;53.326;6.472;2022-11-06T16:44:16;6.13;;;4.40;;
52015;SDS011;38032;53.326;6.472;2022-11-06T16:47:14;10.20;;;4.60;;
52015;SDS011;38032;53.326;6.472;2022-11-06T16:52:19;8.55;;;4.45;;
52015;SDS011;38032;53.326;6.472;2022-11-06T16:54:57;8.80;;;4.55;;
52015;SDS011;38032;53.326;6.472;2022-11-06T16:57:33;7.25;;;4.47;;
52015;SDS011;38032;53.326;6.472;2022-11-06T17:02:37;9.77;;;4.50;;
52015;SDS011;38032;53.326;6.472;2022-11-06T17:05:10;8.60;;;4.20;;
52015;SDS011;38032;53.326;6.472;2022-11-06T17:07:47;5.87;;;3.23;;
52015;SDS011;38032;53.326;6.472;2022-11-06T17:12:59;5.13;;;3.00;;
52015;SDS011;38032;53.326;6.472;2022-11-06T17:15:34;5.65;;;2.72;;